Time;durP1;ratioP1;P1;durP2;ratioP2;P2;SDS_P1;SDS_P2;PMS_P1;PMS_P2;Temp;Humidity;BMP_temperature;BMP_pressure;BME280_temperature;BME280_humidity;BME280_pressure;Samples;Min_cycle;Max_cycle;Signal;HPM_P1;HPM_P2
2022/05/19 00:00:31;;;;;;;2.47;1.50;;;7.00;99.90;;;;;;5009712;28;20906;-83
2022/05/19 00:02:59;;;;;;;3.78;1.80;;;6.90;99.90;;;;;;5019163;28;20468;-83
2022/05/19 00:05:28;;;;;;;5.38;1.65;;;7.00;99.90;;;;;;5020330;28;20426;-83
2022/05/19 00:07:57;;;;;;;2.25;1.30;;;7.00;99.90;;;;;;5021303;28;20403;-83
2022/05/19 00:10:24;;;;;;;2.22;1.38;;;6.90;99.90;;;;;;5023913;28;20481;-83
2022/05/19 00:12:53;;;;;;;3.47;1.52;;;6.90;99.90;;;;;;5022724;28;20431;-82
2022/05/19 00:15:20;;;;;;;5.22;1.65;;;7.00;99.90;;;;;;5021281;28;20404;-84
2022/05/19 00:17:48;;;;;;;4.50;1.70;;;7.00;99.90;;;;;;5015936;28;20407;-83
2022/05/19 00:20:16;;;;;;;2.42;1.33;;;6.90;99.90;;;;;;5016277;28;20494;-83
2022/05/19 00:22:43;;;;;;;3.53;1.40;;;6.90;99.90;;;;;;5019912;28;20453;-83
2022/05/19 00:25:11;;;;;;;4.65;1.55;;;6.90;99.90;;;;;;5036426;28;20502;-84
2022/05/19 00:27:39;;;;;;;3.20;1.60;;;6.90;99.90;;;;;;5042849;28;20431;-84
2022/05/19 00:30:07;;;;;;;4.03;1.67;;;6.80;99.90;;;;;;5016491;28;20500;-82
2022/05/19 00:32:36;;;;;;;2.95;1.55;;;6.80;99.90;;;;;;5016846;28;20407;-83
2022/05/19 00:35:03;;;;;;;4.47;1.27;;;6.80;99.90;;;;;;5024141;28;20404;-84
2022/05/19 00:37:31;;;;;;;4.40;1.38;;;6.80;99.90;;;;;;5012350;28;20788;-83
2022/05/19 00:39:59;;;;;;;3.17;1.77;;;6.80;99.90;;;;;;5019677;28;20430;-82
2022/05/19 00:42:45;;;;;;;4.00;1.53;;;6.80;99.90;;;;;;5023858;28;20416;-85
2022/05/19 00:45:22;;;;;;;3.75;1.65;;;6.80;99.90;;;;;;5017837;28;21071;-83
2022/05/19 00:48:18;;;;;;;4.32;1.58;;;6.80;99.90;;;;;;5012357;28;20406;-84
2022/05/19 00:50:59;;;;;;;5.07;1.65;;;6.80;99.90;;;;;;5048582;28;20446;-84
2022/05/19 00:53:54;;;;;;;5.32;1.52;;;6.80;99.90;;;;;;5015995;28;20399;-84
2022/05/19 00:57:02;;;;;;;3.90;1.58;;;6.80;99.90;;;;;;5007898;28;20456;-83
2022/05/19 00:59:37;;;;;;;3.20;1.40;;;6.80;99.90;;;;;;5013818;28;20409;-83
2022/05/19 01:02:09;;;;;;;4.07;1.50;;;6.80;99.90;;;;;;5016012;28;20410;-83
2022/05/19 01:05:05;;;;;;;3.20;1.47;;;6.80;99.90;;;;;;5012355;28;20463;-83
2022/05/19 01:07:34;;;;;;;2.95;1.30;;;6.70;99.90;;;;;;5008110;28;20483;-82
2022/05/19 01:10:05;;;;;;;3.78;1.33;;;6.70;99.90;;;;;;5022720;28;20407;-83
2022/05/19 01:12:34;;;;;;;3.50;1.50;;;6.70;99.90;;;;;;5014211;28;20395;-83
2022/05/19 01:15:04;;;;;;;4.80;1.60;;;6.60;99.90;;;;;;5005100;28;20759;-85
2022/05/19 01:17:34;;;;;;;3.53;1.70;;;6.60;99.90;;;;;;5002411;28;20406;-84
2022/05/19 01:20:12;;;;;;;3.35;1.55;;;6.70;99.90;;;;;;5020249;28;20429;-83
2022/05/19 01:22:55;;;;;;;2.75;1.40;;;6.60;99.90;;;;;;5010969;28;20892;-83
2022/05/19 01:25:53;;;;;;;4.53;1.70;;;6.60;99.90;;;;;;5006335;28;20456;-83
2022/05/19 01:28:21;;;;;;;4.18;1.52;;;6.60;99.90;;;;;;5004919;28;20458;-83
2022/05/19 01:30:49;;;;;;;4.72;1.52;;;6.70;99.90;;;;;;5002030;28;20410;-84
2022/05/19 01:33:16;;;;;;;3.08;1.58;;;6.70;99.90;;;;;;5003760;28;20782;-83
2022/05/19 01:35:44;;;;;;;5.15;1.70;;;6.80;99.90;;;;;;5000833;28;20439;-83
2022/05/19 01:38:23;;;;;;;3.78;1.50;;;6.80;99.90;;;;;;5002347;28;20411;-83
2022/05/19 01:41:06;;;;;;;4.18;1.60;;;6.80;99.90;;;;;;5007309;28;20993;-84
2022/05/19 01:43:48;;;;;;;3.25;1.70;;;6.80;99.90;;;;;;5000183;28;20400;-84
2022/05/19 01:46:33;;;;;;;3.92;1.75;;;6.80;99.90;;;;;;4998283;28;20400;-84
2022/05/19 01:49:27;;;;;;;4.40;1.70;;;6.90;99.90;;;;;;5047523;28;20755;-84
2022/05/19 01:52:11;;;;;;;6.00;1.83;;;6.90;99.90;;;;;;5019432;28;20437;-83
2022/05/19 01:55:37;;;;;;;3.03;1.50;;;6.90;99.90;;;;;;5001652;28;20405;-84
2022/05/19 01:58:30;;;;;;;6.07;1.73;;;6.80;99.90;;;;;;5047223;28;20415;-83
2022/05/19 02:01:01;;;;;;;3.90;1.95;;;6.70;99.90;;;;;;5013684;28;20415;-83
2022/05/19 02:03:41;;;;;;;6.45;1.92;;;6.60;99.90;;;;;;5010987;28;20903;-83
2022/05/19 02:06:25;;;;;;;5.90;2.20;;;6.60;99.90;;;;;;5046911;28;20405;-82
2022/05/19 02:09:04;;;;;;;4.80;2.00;;;6.60;99.90;;;;;;5015529;28;20414;-83
2022/05/19 02:11:38;;;;;;;4.20;1.80;;;6.60;99.90;;;;;;5017281;28;20468;-83
2022/05/19 02:14:12;;;;;;;4.70;1.77;;;6.70;99.90;;;;;;5015758;28;20458;-83
2022/05/19 02:16:42;;;;;;;4.85;1.90;;;6.50;99.90;;;;;;5016742;28;20800;-84
2022/05/19 02:19:12;;;;;;;3.70;1.95;;;6.40;99.90;;;;;;5024295;28;20501;-83
2022/05/19 02:21:40;;;;;;;3.47;2.00;;;6.50;99.90;;;;;;5012371;28;20789;-83
2022/05/19 02:24:12;;;;;;;3.33;1.70;;;6.50;99.90;;;;;;5008138;28;20410;-83
2022/05/19 02:26:40;;;;;;;4.73;1.80;;;6.40;99.90;;;;;;5010124;28;20437;-84
2022/05/19 02:29:12;;;;;;;6.30;1.70;;;6.40;99.90;;;;;;5010378;28;20838;-83
2022/05/19 02:31:44;;;;;;;4.47;1.90;;;6.30;99.90;;;;;;5010578;28;20403;-83
2022/05/19 02:34:12;;;;;;;4.60;2.22;;;6.40;99.90;;;;;;5018915;28;20411;-84
2022/05/19 02:36:40;;;;;;;3.00;1.80;;;6.40;99.90;;;;;;5017159;28;20946;-83
2022/05/19 02:39:09;;;;;;;4.32;1.80;;;6.50;99.90;;;;;;5004672;28;20412;-83
2022/05/19 02:41:37;;;;;;;5.63;1.80;;;6.40;99.90;;;;;;5013484;28;20387;-83
2022/05/19 02:44:05;;;;;;;4.80;1.80;;;6.40;99.90;;;;;;5019440;28;20390;-83
2022/05/19 02:46:32;;;;;;;4.22;1.80;;;6.40;99.90;;;;;;5009507;28;20495;-83
2022/05/19 02:49:01;;;;;;;4.45;1.60;;;6.40;99.90;;;;;;5017178;28;20486;-84
2022/05/19 02:51:30;;;;;;;5.03;1.67;;;6.40;99.90;;;;;;5024451;28;20402;-85
2022/05/19 02:53:58;;;;;;;3.25;1.70;;;6.50;99.90;;;;;;5044862;28;20423;-83
2022/05/19 02:56:26;;;;;;;4.13;1.65;;;6.60;99.90;;;;;;5014255;28;20497;-84
2022/05/19 02:58:54;;;;;;;5.07;1.70;;;6.40;99.90;;;;;;5009561;28;20853;-85
2022/05/19 03:01:22;;;;;;;2.65;1.70;;;6.40;99.90;;;;;;5015870;28;20525;-84
2022/05/19 03:03:50;;;;;;;3.58;1.80;;;6.50;99.90;;;;;;5010181;28;20512;-83
2022/05/19 03:06:19;;;;;;;5.28;1.80;;;6.50;99.90;;;;;;5010309;28;20423;-83
2022/05/19 03:08:47;;;;;;;3.67;1.80;;;6.40;99.90;;;;;;5017291;28;20399;-85
2022/05/19 03:11:14;;;;;;;5.07;1.55;;;6.40;99.90;;;;;;5014785;28;20437;-84
2022/05/19 03:13:42;;;;;;;3.47;1.40;;;6.40;99.90;;;;;;5020264;28;20397;-84
2022/05/19 03:16:10;;;;;;;7.30;1.80;;;6.40;99.90;;;;;;5003149;28;20428;-83
2022/05/19 03:18:39;;;;;;;4.22;1.75;;;6.30;99.90;;;;;;5015579;28;20490;-84
2022/05/19 03:21:07;;;;;;;3.88;1.67;;;6.20;99.90;;;;;;5011033;28;20399;-83
2022/05/19 03:23:35;;;;;;;3.85;1.65;;;6.30;99.90;;;;;;5013621;28;20397;-83
2022/05/19 03:26:03;;;;;;;4.10;1.60;;;6.30;99.90;;;;;;5010807;28;20497;-83
2022/05/19 03:28:31;;;;;;;3.95;1.48;;;6.30;99.90;;;;;;5008743;28;20431;-83
2022/05/19 03:30:58;;;;;;;6.18;1.70;;;6.20;99.90;;;;;;5013289;28;20443;-83
2022/05/19 03:33:27;;;;;;;3.38;1.73;;;6.20;99.90;;;;;;5014408;28;20439;-83
2022/05/19 03:35:58;;;;;;;2.77;1.40;;;6.30;99.90;;;;;;5012969;28;20411;-83
2022/05/19 03:38:28;;;;;;;5.43;1.60;;;6.30;99.90;;;;;;5007108;28;20439;-83
2022/05/19 03:40:55;;;;;;;5.10;1.80;;;6.20;99.90;;;;;;5014421;28;20427;-84
2022/05/19 03:43:23;;;;;;;4.85;1.50;;;6.30;99.90;;;;;;5046060;28;20827;-85
2022/05/19 03:45:51;;;;;;;4.13;1.55;;;6.30;99.90;;;;;;5008807;28;20760;-85
2022/05/19 03:48:23;;;;;;;4.70;1.77;;;6.30;99.90;;;;;;5008471;28;20403;-83
2022/05/19 03:50:50;;;;;;;3.20;1.30;;;6.30;99.90;;;;;;5045579;28;20406;-82
2022/05/19 03:53:18;;;;;;;6.45;1.45;;;6.30;99.90;;;;;;5014767;28;20906;-83
2022/05/19 03:55:46;;;;;;;4.72;1.48;;;6.30;99.90;;;;;;5015259;28;20507;-84
2022/05/19 03:58:13;;;;;;;3.70;1.30;;;6.40;99.90;;;;;;5009406;28;20416;-85
2022/05/19 04:00:42;;;;;;;3.50;1.27;;;6.30;99.90;;;;;;5012885;28;20764;-84
2022/05/19 04:03:10;;;;;;;3.75;1.48;;;6.30;99.90;;;;;;5005119;28;20432;-85
2022/05/19 04:05:38;;;;;;;3.65;1.40;;;6.30;99.90;;;;;;5010352;28;20407;-85
2022/05/19 04:08:06;;;;;;;5.97;1.27;;;6.30;99.90;;;;;;5003481;28;20397;-84
2022/05/19 04:10:34;;;;;;;2.70;1.30;;;6.40;99.90;;;;;;5011639;28;20409;-84
2022/05/19 04:13:02;;;;;;;3.45;1.27;;;6.40;99.90;;;;;;5012107;28;20428;-84
2022/05/19 04:15:29;;;;;;;3.20;1.20;;;6.40;99.90;;;;;;5005430;28;20399;-85
2022/05/19 04:17:57;;;;;;;3.63;1.00;;;6.40;99.90;;;;;;5014286;28;20485;-84
2022/05/19 04:20:29;;;;;;;4.05;1.30;;;6.40;99.90;;;;;;5008098;28;20401;-84
2022/05/19 04:22:59;;;;;;;3.85;1.42;;;6.40;99.90;;;;;;5006863;28;20953;-85
2022/05/19 04:25:29;;;;;;;2.90;1.20;;;6.40;99.90;;;;;;5015335;28;20427;-84
2022/05/19 04:27:58;;;;;;;3.63;1.33;;;6.50;99.90;;;;;;5012637;28;20409;-85
2022/05/19 04:30:26;;;;;;;3.70;1.48;;;6.50;99.90;;;;;;5011593;28;20436;-85
2022/05/19 04:32:56;;;;;;;3.97;1.45;;;6.50;99.90;;;;;;5019384;28;20435;-86
2022/05/19 04:35:24;;;;;;;4.97;1.30;;;6.40;99.90;;;;;;5019107;28;20412;-84
2022/05/19 04:37:56;;;;;;;5.03;1.60;;;6.40;99.90;;;;;;5006780;28;22292;-84
2022/05/19 04:40:24;;;;;;;3.53;1.60;;;6.40;99.90;;;;;;5015895;28;20397;-86
2022/05/19 04:42:54;;;;;;;3.53;1.73;;;6.40;99.90;;;;;;5010076;28;20398;-85
2022/05/19 04:45:21;;;;;;;3.72;1.52;;;6.40;99.90;;;;;;5020509;28;20387;-85
2022/05/19 04:47:49;;;;;;;4.72;1.67;;;6.50;99.90;;;;;;5017713;28;20393;-84
2022/05/19 04:50:17;;;;;;;5.88;1.63;;;6.40;99.90;;;;;;5013081;28;20409;-84
2022/05/19 04:52:47;;;;;;;3.75;1.60;;;6.30;99.90;;;;;;5022963;28;20397;-84
2022/05/19 04:55:16;;;;;;;5.47;1.65;;;6.30;99.90;;;;;;5019075;28;20815;-84
2022/05/19 04:57:44;;;;;;;4.10;1.77;;;6.30;99.90;;;;;;5009920;28;20395;-84
2022/05/19 05:00:15;;;;;;;4.30;1.90;;;6.30;99.90;;;;;;5022046;28;20437;-87
2022/05/19 05:02:42;;;;;;;4.50;1.60;;;6.30;99.90;;;;;;5019203;28;20405;-84
2022/05/19 05:05:11;;;;;;;7.32;1.63;;;6.30;99.90;;;;;;5016835;28;20397;-84
2022/05/19 05:07:38;;;;;;;4.47;1.55;;;6.30;99.90;;;;;;5019009;28;20469;-86
2022/05/19 05:10:07;;;;;;;3.55;1.60;;;6.30;99.90;;;;;;5010896;28;20529;-84
2022/05/19 05:12:34;;;;;;;5.65;1.40;;;6.30;99.90;;;;;;5016881;28;20674;-87
2022/05/19 05:15:02;;;;;;;5.95;1.63;;;6.40;99.90;;;;;;5017919;28;20399;-85
2022/05/19 05:17:30;;;;;;;2.97;1.15;;;6.40;99.90;;;;;;5016716;28;20403;-84
2022/05/19 05:19:58;;;;;;;2.97;1.30;;;6.40;99.90;;;;;;5006660;28;20409;-84
2022/05/19 05:22:26;;;;;;;3.75;1.52;;;6.40;99.90;;;;;;5013463;28;20387;-84
2022/05/19 05:24:54;;;;;;;5.30;1.50;;;6.40;99.90;;;;;;5011271;28;20406;-86
2022/05/19 05:27:21;;;;;;;5.53;1.40;;;6.40;99.90;;;;;;5015123;28;20405;-86
2022/05/19 05:29:51;;;;;;;5.10;1.30;;;6.50;99.90;;;;;;5015160;28;20492;-86
2022/05/19 05:32:19;;;;;;;4.25;1.30;;;6.50;99.90;;;;;;5012641;28;20468;-86
2022/05/19 05:34:47;;;;;;;4.83;1.40;;;6.50;99.90;;;;;;5013593;28;20425;-86
2022/05/19 05:37:14;;;;;;;3.55;1.20;;;6.60;99.90;;;;;;5015678;28;20807;-85
2022/05/19 05:39:42;;;;;;;3.42;1.20;;;6.60;99.90;;;;;;5014809;28;20453;-85
2022/05/19 05:42:10;;;;;;;3.17;1.30;;;6.70;99.90;;;;;;5008245;28;20404;-84
2022/05/19 05:44:37;;;;;;;2.78;1.30;;;6.80;99.90;;;;;;5008479;28;20488;-84
2022/05/19 05:47:05;;;;;;;2.78;1.17;;;6.90;99.90;;;;;;5017080;28;20404;-85
2022/05/19 05:49:33;;;;;;;4.22;1.20;;;6.90;99.90;;;;;;5014643;28;21050;-84
2022/05/19 05:52:01;;;;;;;4.10;1.10;;;7.00;99.90;;;;;;5013402;28;20409;-84
2022/05/19 05:54:28;;;;;;;3.83;1.23;;;7.10;99.90;;;;;;5045239;28;20504;-84
2022/05/19 05:56:56;;;;;;;4.68;1.15;;;7.10;99.90;;;;;;5012099;28;20437;-85
2022/05/19 05:59:23;;;;;;;5.03;1.10;;;7.20;99.90;;;;;;5016952;28;20404;-85
2022/05/19 06:01:51;;;;;;;3.60;1.15;;;7.20;99.90;;;;;;5010380;28;20397;-85
2022/05/19 06:04:19;;;;;;;3.33;1.10;;;7.30;99.90;;;;;;5010955;28;20416;-84
2022/05/19 06:06:48;;;;;;;3.08;1.15;;;7.40;99.90;;;;;;5017287;28;20410;-86
2022/05/19 06:09:16;;;;;;;6.30;1.40;;;7.40;99.90;;;;;;5009503;28;20489;-85
2022/05/19 06:11:44;;;;;;;2.75;1.10;;;7.50;99.90;;;;;;5005898;28;20415;-83
2022/05/19 06:14:12;;;;;;;7.20;1.25;;;7.40;99.90;;;;;;5015473;28;20419;-85
2022/05/19 06:16:40;;;;;;;2.35;1.10;;;7.40;99.90;;;;;;5020529;28;20779;-84
2022/05/19 06:19:07;;;;;;;5.20;1.23;;;7.40;99.90;;;;;;5018928;28;20427;-85
2022/05/19 06:21:39;;;;;;;6.33;1.30;;;7.40;99.90;;;;;;5011040;28;20403;-86
2022/05/19 06:24:08;;;;;;;4.75;1.13;;;7.40;99.90;;;;;;5016938;28;20850;-85
2022/05/19 06:26:38;;;;;;;4.30;1.10;;;7.40;99.90;;;;;;5017801;28;20389;-85
2022/05/19 06:29:08;;;;;;;2.63;1.00;;;7.40;99.90;;;;;;5011887;28;20419;-84
2022/05/19 06:31:36;;;;;;;3.08;0.98;;;7.50;99.90;;;;;;5011281;28;20460;-83
2022/05/19 06:34:05;;;;;;;3.72;0.90;;;7.50;99.90;;;;;;5017914;28;20406;-84
2022/05/19 06:36:33;;;;;;;2.43;0.97;;;7.50;99.90;;;;;;5009081;28;20386;-83
2022/05/19 06:39:00;;;;;;;4.65;1.00;;;7.50;99.90;;;;;;5010733;28;20458;-86
2022/05/19 06:44:17;;;;;;;4.05;1.20;;;7.50;99.90;;;;;;5013439;28;20425;-84
2022/05/19 06:46:46;;;;;;;4.05;1.02;;;7.50;99.90;;;;;;5041647;28;20836;-83
2022/05/19 06:49:14;;;;;;;2.17;1.10;;;7.50;99.90;;;;;;5016661;28;20452;-85
2022/05/19 06:51:42;;;;;;;2.83;0.98;;;7.50;99.90;;;;;;5011877;28;20494;-85
2022/05/19 06:54:09;;;;;;;2.10;0.93;;;7.60;99.90;;;;;;5011342;28;20412;-84
2022/05/19 06:56:37;;;;;;;2.58;0.82;;;7.60;99.90;;;;;;5016113;28;20517;-84
2022/05/19 06:59:05;;;;;;;5.18;1.10;;;7.60;99.90;;;;;;4999493;28;20405;-84
2022/05/19 07:01:33;;;;;;;2.88;1.10;;;7.60;99.90;;;;;;5014748;28;20389;-86
2022/05/19 07:04:01;;;;;;;3.50;1.10;;;7.70;99.90;;;;;;5013736;28;20397;-84
2022/05/19 07:06:29;;;;;;;3.15;1.05;;;7.70;99.90;;;;;;5008408;28;20432;-84
2022/05/19 07:08:56;;;;;;;2.25;0.82;;;7.70;99.90;;;;;;5014948;28;20488;-85
2022/05/19 07:11:24;;;;;;;3.72;1.20;;;7.90;99.90;;;;;;5010386;28;20411;-85
2022/05/19 07:14:01;;;;;;;2.88;0.98;;;7.90;99.90;;;;;;5015467;28;20740;-85
2022/05/19 07:16:31;;;;;;;5.03;1.40;;;8.00;99.90;;;;;;5038772;28;20397;-85
2022/05/19 07:21:47;;;;;;;3.23;1.10;;;8.10;99.90;;;;;;5014908;28;20563;-84
2022/05/19 07:24:19;;;;;;;2.80;1.00;;;8.10;99.90;;;;;;5014604;28;20886;-85
2022/05/19 07:26:52;;;;;;;3.17;0.93;;;8.10;99.90;;;;;;5018417;28;20400;-84
2022/05/19 07:29:21;;;;;;;2.33;0.90;;;8.10;99.90;;;;;;5012663;28;20411;-85
2022/05/19 07:31:50;;;;;;;2.85;1.00;;;8.10;99.90;;;;;;5009942;28;20490;-84
2022/05/19 07:34:22;;;;;;;6.38;1.05;;;8.00;99.90;;;;;;5013176;28;20460;-86
2022/05/19 07:36:50;;;;;;;4.18;0.95;;;8.00;99.90;;;;;;5013778;28;20411;-85
2022/05/19 07:39:18;;;;;;;4.85;1.00;;;8.00;99.90;;;;;;5015676;28;20414;-85
2022/05/19 07:41:55;;;;;;;2.88;0.90;;;8.00;99.90;;;;;;5012918;28;20438;-85
2022/05/19 07:44:25;;;;;;;1.95;1.08;;;8.10;99.90;;;;;;5015550;28;20883;-85
2022/05/19 07:46:54;;;;;;;4.35;1.15;;;8.10;99.90;;;;;;5004374;28;20488;-85
2022/05/19 07:49:21;;;;;;;7.35;1.30;;;8.20;99.90;;;;;;5015267;28;20498;-85
2022/05/19 07:51:49;;;;;;;4.00;1.20;;;8.20;99.90;;;;;;5010356;28;20461;-85
2022/05/19 07:54:20;;;;;;;5.32;1.40;;;8.30;99.90;;;;;;5010219;28;20805;-84
2022/05/19 07:56:49;;;;;;;7.65;1.38;;;8.40;99.90;;;;;;5008619;28;20896;-86
2022/05/19 07:59:17;;;;;;;4.10;1.50;;;8.40;99.90;;;;;;5021822;28;20546;-85
2022/05/19 08:01:45;;;;;;;5.90;1.77;;;8.50;99.90;;;;;;5011288;28;20395;-87
2022/05/19 08:04:22;;;;;;;3.20;1.50;;;8.60;99.90;;;;;;5015675;28;20770;-86
2022/05/19 08:06:52;;;;;;;5.20;1.50;;;8.60;99.90;;;;;;5020710;28;20401;-85
2022/05/19 08:12:16;;;;;;;4.47;1.40;;;8.80;99.90;;;;;;5021712;28;20890;-85
2022/05/19 08:17:31;;;;;;;5.60;1.50;;;9.00;99.90;;;;;;5014644;28;20454;-86
2022/05/19 08:20:00;;;;;;;3.83;1.33;;;9.10;99.90;;;;;;5021754;28;20413;-86
2022/05/19 08:22:28;;;;;;;5.77;1.20;;;9.20;99.90;;;;;;5008585;28;20453;-85
2022/05/19 08:24:59;;;;;;;2.80;1.20;;;9.30;99.90;;;;;;5013780;28;20394;-85
2022/05/19 08:27:27;;;;;;;6.10;1.17;;;9.40;99.90;;;;;;5018949;28;20923;-85
2022/05/19 08:29:55;;;;;;;4.93;1.30;;;9.50;99.90;;;;;;5012869;28;20493;-85
2022/05/19 08:32:24;;;;;;;4.50;1.50;;;9.60;99.90;;;;;;5022270;28;20409;-86
2022/05/19 08:34:52;;;;;;;5.53;1.20;;;9.60;99.90;;;;;;5004234;28;20396;-85
2022/05/19 08:37:20;;;;;;;5.75;1.20;;;9.80;99.90;;;;;;5017889;28;20409;-85
2022/05/19 08:39:48;;;;;;;5.93;1.15;;;9.80;99.90;;;;;;5013993;28;20496;-86
2022/05/19 08:42:17;;;;;;;2.87;1.20;;;9.90;99.90;;;;;;5012878;28;20408;-85
2022/05/19 08:44:54;;;;;;;4.22;1.20;;;10.10;99.90;;;;;;5020025;28;20401;-87
2022/05/19 08:47:30;;;;;;;2.42;1.00;;;10.20;99.90;;;;;;5017514;28;20426;-85
2022/05/19 08:50:06;;;;;;;3.05;1.10;;;10.30;99.90;;;;;;5014910;28;20455;-86
2022/05/19 08:52:44;;;;;;;4.28;1.10;;;10.30;99.90;;;;;;5049917;28;20435;-86
2022/05/19 08:55:17;;;;;;;4.25;1.20;;;10.40;99.90;;;;;;5013082;28;20406;-84
2022/05/19 08:57:44;;;;;;;3.38;1.10;;;10.60;99.90;;;;;;5018267;28;20411;-85
2022/05/19 09:00:24;;;;;;;4.63;1.05;;;10.80;99.90;;;;;;5046583;28;20916;-85
2022/05/19 09:02:58;;;;;;;4.15;1.10;;;10.70;99.90;;;;;;5001828;28;20823;-85
2022/05/19 09:05:28;;;;;;;4.60;1.10;;;10.90;99.90;;;;;;5018407;28;20394;-84
2022/05/19 09:08:21;;;;;;;5.00;1.10;;;11.00;99.90;;;;;;5013712;28;20405;-87
2022/05/19 09:11:10;;;;;;;5.03;1.33;;;10.90;99.90;;;;;;5010246;28;20404;-85
2022/05/19 09:14:20;;;;;;;3.72;1.13;;;11.10;99.90;;;;;;5016314;28;20385;-85
2022/05/19 09:16:48;;;;;;;5.88;1.20;;;11.20;99.90;;;;;;5036502;28;20698;-85
2022/05/19 09:19:56;;;;;;;4.22;1.00;;;11.40;99.90;;;;;;5038596;28;20764;-85
2022/05/19 09:22:29;;;;;;;5.90;1.20;;;11.40;99.90;;;;;;5057635;28;20811;-84
2022/05/19 09:24:58;;;;;;;4.55;1.10;;;11.60;99.90;;;;;;5050890;28;20393;-85
2022/05/19 09:27:26;;;;;;;3.80;1.20;;;11.70;99.90;;;;;;5035532;28;20740;-84
2022/05/19 09:29:57;;;;;;;2.90;1.17;;;11.80;99.90;;;;;;5039231;28;20437;-86
2022/05/19 09:32:37;;;;;;;3.90;1.17;;;11.70;99.90;;;;;;5000529;28;20405;-85
2022/05/19 09:35:07;;;;;;;4.35;1.30;;;11.80;99.90;;;;;;5009028;28;20434;-85
2022/05/19 09:37:49;;;;;;;3.72;1.25;;;11.80;99.90;;;;;;5016421;28;20409;-85
2022/05/19 09:40:25;;;;;;;5.70;1.42;;;12.20;99.90;;;;;;5019359;28;20415;-85
2022/05/19 09:43:15;;;;;;;3.53;1.15;;;12.30;99.90;;;;;;5011744;28;20394;-85
2022/05/19 09:45:47;;;;;;;2.75;1.10;;;12.30;99.90;;;;;;5019347;28;20411;-84
2022/05/19 09:48:20;;;;;;;2.10;1.02;;;12.40;99.90;;;;;;5019404;28;20880;-83
2022/05/19 09:50:50;;;;;;;4.18;1.13;;;12.50;99.90;;;;;;5035359;28;20421;-85
2022/05/19 09:53:26;;;;;;;5.30;1.48;;;12.90;99.90;;;;;;5013879;28;20397;-84
2022/05/19 09:56:03;;;;;;;5.40;1.10;;;13.20;99.90;;;;;;5021585;28;20407;-85
2022/05/19 09:58:34;;;;;;;3.25;1.20;;;13.20;99.90;;;;;;5013242;28;20389;-85
2022/05/19 10:01:14;;;;;;;2.83;1.10;;;13.20;99.90;;;;;;5007975;28;20409;-86
2022/05/19 10:03:51;;;;;;;3.20;0.93;;;13.40;99.90;;;;;;5018241;28;20404;-85
2022/05/19 10:06:24;;;;;;;3.28;1.10;;;13.50;99.90;;;;;;5044645;28;20398;-86
2022/05/19 10:09:18;;;;;;;3.88;1.10;;;13.40;99.90;;;;;;5013790;28;20401;-85
2022/05/19 10:11:54;;;;;;;4.47;1.10;;;13.60;99.90;;;;;;5018983;28;20408;-86
2022/05/19 10:14:28;;;;;;;4.65;1.20;;;13.90;99.90;;;;;;5017994;28;20887;-85
2022/05/19 10:17:30;;;;;;;3.70;1.02;;;14.00;99.90;;;;;;5010760;28;20434;-85
2022/05/19 10:20:21;;;;;;;2.80;0.90;;;14.00;99.90;;;;;;5035408;28;20776;-86
2022/05/19 10:23:16;;;;;;;4.07;1.45;;;14.10;99.90;;;;;;5019273;28;20396;-84
2022/05/19 10:26:02;;;;;;;3.60;1.13;;;14.20;99.90;;;;;;5016071;28;20975;-85
2022/05/19 10:32:44;;;;;;;3.83;0.90;;;14.50;99.90;;;;;;5015556;28;20394;-87
2022/05/19 10:35:37;;;;;;;3.40;1.10;;;14.60;99.90;;;;;;5014678;28;20892;-86
2022/05/19 10:38:36;;;;;;;3.75;1.38;;;14.60;99.90;;;;;;5019415;28;20402;-84
2022/05/19 10:41:06;;;;;;;4.57;1.10;;;14.70;99.90;;;;;;5011801;28;20799;-86
2022/05/19 10:43:55;;;;;;;4.50;1.02;;;14.80;99.90;;;;;;5009767;28;20473;-84
2022/05/19 10:46:23;;;;;;;2.38;1.38;;;15.00;99.90;;;;;;5009014;28;20465;-85
2022/05/19 10:49:26;;;;;;;4.63;1.33;;;15.00;99.90;;;;;;5008450;28;20427;-85
2022/05/19 10:52:33;;;;;;;5.78;1.25;;;15.20;99.90;;;;;;5008641;28;20428;-87
2022/05/19 10:55:17;;;;;;;8.77;1.40;;;15.20;99.90;;;;;;5015546;28;20397;-84
2022/05/19 10:57:51;;;;;;;4.68;1.25;;;15.40;99.90;;;;;;5015673;28;20408;-85
2022/05/19 11:00:33;;;;;;;4.22;1.45;;;15.50;99.90;;;;;;5047468;28;20413;-86
2022/05/19 11:03:21;;;;;;;5.07;1.30;;;15.70;99.90;;;;;;5050406;28;20890;-85
2022/05/19 11:06:16;;;;;;;3.95;1.20;;;15.70;99.90;;;;;;5014931;28;20460;-85
2022/05/19 11:08:59;;;;;;;7.18;1.20;;;15.80;99.90;;;;;;5021325;28;20489;-85
2022/05/19 11:11:48;;;;;;;3.58;1.15;;;15.90;99.90;;;;;;5008799;28;20505;-85
2022/05/19 11:14:34;;;;;;;5.20;1.25;;;15.90;99.90;;;;;;5009234;28;20437;-84
2022/05/19 11:17:30;;;;;;;4.45;1.35;;;15.90;99.90;;;;;;5010480;28;20490;-84
2022/05/19 11:20:13;;;;;;;4.80;1.10;;;16.20;99.90;;;;;;5024699;28;20409;-85
2022/05/19 11:22:42;;;;;;;6.60;1.20;;;16.10;99.90;;;;;;5014185;28;20424;-84
2022/05/19 11:28:24;;;;;;;3.67;1.30;;;16.30;99.90;;;;;;5012311;28;20385;-84
2022/05/19 11:31:00;;;;;;;5.53;1.20;;;16.40;99.90;;;;;;5014227;28;20400;-85
2022/05/19 11:33:33;;;;;;;3.17;1.08;;;16.30;99.90;;;;;;5009988;28;20405;-84
2022/05/19 11:36:12;;;;;;;4.13;1.20;;;16.50;99.90;;;;;;5010974;28;20444;-84
2022/05/19 11:38:58;;;;;;;3.17;1.20;;;16.50;99.90;;;;;;5043561;28;20502;-85
2022/05/19 11:41:30;;;;;;;3.28;1.02;;;16.70;99.90;;;;;;5009293;28;20420;-83
2022/05/19 11:44:11;;;;;;;4.43;1.50;;;16.90;99.90;;;;;;5006233;28;20814;-84
2022/05/19 11:46:59;;;;;;;3.17;1.20;;;16.80;99.90;;;;;;5015256;28;20486;-84
2022/05/19 11:55:45;;;;;;;2.73;1.00;;;16.90;99.90;;;;;;4981777;28;20401;-84
2022/05/19 11:58:22;;;;;;;4.30;1.33;;;16.90;99.90;;;;;;4993306;28;20861;-84
2022/05/19 12:00:49;;;;;;;4.55;1.17;;;17.00;99.90;;;;;;5008695;28;20539;-84
2022/05/19 12:03:24;;;;;;;3.77;1.20;;;16.90;99.90;;;;;;5007548;28;20451;-84
2022/05/19 12:05:54;;;;;;;5.77;1.13;;;16.80;99.90;;;;;;5045897;28;20488;-83
2022/05/19 12:08:34;;;;;;;3.17;1.10;;;16.90;99.90;;;;;;5001569;28;20495;-84
2022/05/19 12:11:36;;;;;;;5.13;1.20;;;16.90;99.90;;;;;;5017164;28;20496;-85
2022/05/19 12:14:27;;;;;;;5.88;1.10;;;17.00;99.90;;;;;;5034697;28;20497;-85
2022/05/19 12:16:57;;;;;;;6.35;1.10;;;17.10;99.90;;;;;;5021544;28;20391;-85
2022/05/19 12:19:35;;;;;;;3.88;1.25;;;17.20;99.90;;;;;;5051120;28;20447;-86
2022/05/19 12:22:10;;;;;;;4.35;1.50;;;17.40;99.90;;;;;;5019056;28;20421;-84
2022/05/19 12:25:09;;;;;;;5.47;1.40;;;17.40;99.90;;;;;;5019082;28;20943;-84
2022/05/19 12:27:41;;;;;;;4.63;1.20;;;17.40;99.90;;;;;;5027778;28;20399;-84
2022/05/19 12:33:26;;;;;;;4.22;1.15;;;17.50;99.90;;;;;;5018910;28;20410;-84
2022/05/19 12:35:59;;;;;;;6.78;1.30;;;17.60;99.90;;;;;;5011609;28;20424;-84
2022/05/19 12:38:37;;;;;;;7.10;1.30;;;17.70;99.90;;;;;;5011328;28;20470;-84
2022/05/19 12:41:32;;;;;;;3.60;1.20;;;18.00;99.90;;;;;;5011456;28;20409;-83
2022/05/19 12:44:29;;;;;;;5.78;1.40;;;17.80;99.90;;;;;;5014194;28;20402;-83
2022/05/19 12:47:04;;;;;;;5.85;1.30;;;17.70;99.90;;;;;;5021316;28;20397;-84
2022/05/19 12:49:35;;;;;;;5.77;1.37;;;17.70;99.90;;;;;;5020985;28;20755;-84
2022/05/19 12:52:14;;;;;;;3.80;1.23;;;17.60;99.90;;;;;;5020677;28;20777;-83
2022/05/19 12:55:22;;;;;;;3.87;1.40;;;17.50;99.90;;;;;;5016197;28;20456;-83
2022/05/19 12:57:58;;;;;;;2.92;1.27;;;17.60;99.90;;;;;;5014682;28;20794;-84
2022/05/19 13:00:35;;;;;;;5.20;1.55;;;17.70;99.90;;;;;;5006391;28;20404;-85
2022/05/19 13:03:18;;;;;;;9.23;1.83;;;18.00;99.90;;;;;;5014197;28;20903;-86
2022/05/19 13:05:58;;;;;;;5.83;1.53;;;18.30;99.90;;;;;;5013110;28;20408;-84
2022/05/19 13:08:34;;;;;;;3.97;1.30;;;18.60;99.90;;;;;;5017713;27;20425;-84
2022/05/19 13:11:07;;;;;;;4.22;1.60;;;18.50;99.90;;;;;;5024473;28;20753;-84
2022/05/19 13:13:50;;;;;;;4.60;1.40;;;18.60;99.90;;;;;;5011105;28;20403;-83
2022/05/19 13:16:18;;;;;;;9.38;1.60;;;18.90;99.90;;;;;;5005720;28;20767;-83
2022/05/19 13:19:05;;;;;;;6.60;1.60;;;18.90;99.90;;;;;;5019938;28;20761;-85
2022/05/19 13:21:38;;;;;;;6.17;1.50;;;18.90;99.90;;;;;;5010967;28;20415;-85
2022/05/19 13:24:12;;;;;;;5.57;1.50;;;18.80;99.90;;;;;;5014328;28;20503;-85
2022/05/19 13:26:42;;;;;;;8.85;1.52;;;18.60;99.90;;;;;;5016096;28;20404;-84
2022/05/19 13:32:14;;;;;;;4.90;1.70;;;18.60;99.90;;;;;;5011225;28;20420;-84
2022/05/19 13:34:53;;;;;;;4.57;1.40;;;18.70;99.90;;;;;;5011906;28;20971;-85
2022/05/19 13:37:32;;;;;;;4.30;1.45;;;18.80;99.90;;;;;;5019827;28;20861;-84
2022/05/19 13:40:09;;;;;;;5.60;1.70;;;18.90;99.90;;;;;;5038901;28;20889;-85
2022/05/19 13:42:38;;;;;;;4.97;1.45;;;19.00;99.90;;;;;;5015540;28;20477;-85
2022/05/19 13:45:06;;;;;;;4.93;1.60;;;19.10;99.90;;;;;;5018668;28;20383;-85
2022/05/19 13:47:35;;;;;;;5.28;1.48;;;19.30;99.90;;;;;;5020439;28;20408;-84
2022/05/19 13:50:08;;;;;;;3.70;1.60;;;19.20;99.90;;;;;;5009983;28;20436;-83
2022/05/19 13:52:44;;;;;;;9.25;1.80;;;19.30;99.90;;;;;;5015003;28;20485;-84
2022/05/19 13:55:34;;;;;;;3.20;1.58;;;19.20;99.90;;;;;;5005392;28;20403;-84
2022/05/19 13:58:03;;;;;;;8.82;1.88;;;19.20;99.90;;;;;;5014736;28;20389;-84